createdAt,value
2019-04-06T00:01:47.527Z,46.5
2019-04-06T00:03:48.971Z,46.2
2019-04-06T00:05:50.342Z,40.9
2019-04-06T00:07:51.743Z,34
2019-04-06T00:09:53.110Z,33.1
2019-04-06T00:11:54.539Z,44.3
2019-04-06T00:13:55.972Z,46
2019-04-06T00:15:57.404Z,44.5
2019-04-06T00:17:58.836Z,36.9
2019-04-06T00:20:00.278Z,34.2
2019-04-06T00:22:01.696Z,51.6
2019-04-06T00:24:03.139Z,53.1
2019-04-06T00:26:04.562Z,49
2019-04-06T00:28:05.995Z,49.2
2019-04-06T00:30:07.428Z,52.2
2019-04-06T00:32:08.831Z,51.1
2019-04-06T00:34:10.199Z,50.5
2019-04-06T00:36:11.626Z,44.8
2019-04-06T00:38:13.008Z,60.9
2019-04-06T00:40:14.442Z,65.9
2019-04-06T00:42:15.827Z,54.8
2019-04-06T00:44:17.166Z,47.3
2019-04-06T00:46:18.602Z,61
2019-04-06T00:48:19.947Z,54.8
2019-04-06T00:50:21.383Z,54.9
2019-04-06T00:52:22.822Z,44.8
2019-04-06T00:54:24.172Z,48
2019-04-06T00:56:25.601Z,51
2019-04-06T00:58:27.033Z,51.2
2019-04-06T01:00:28.463Z,53
2019-04-06T01:02:29.989Z,49.4
2019-04-06T01:04:31.419Z,55.5
2019-04-06T01:06:32.855Z,47
2019-04-06T01:08:34.180Z,38.4
2019-04-06T01:10:35.615Z,43.8
2019-04-06T01:12:37.041Z,40.8
2019-04-06T01:14:38.449Z,38.9
2019-04-06T01:16:39.891Z,39.8
2019-04-06T01:18:41.316Z,36.8
2019-04-06T01:20:42.674Z,36.9
2019-04-06T01:22:44.101Z,36.1
2019-04-06T01:24:45.548Z,38.4
2019-04-06T01:26:46.960Z,38.6
2019-04-06T01:28:48.302Z,49.7
2019-04-06T01:30:49.732Z,51.5
2019-04-06T01:32:51.071Z,56.7
2019-04-06T01:34:52.502Z,55.1
2019-04-06T01:36:53.940Z,46.3
2019-04-06T01:38:55.363Z,50.5
2019-04-06T01:40:56.698Z,61.7
2019-04-06T01:42:58.135Z,51.3
2019-04-06T01:44:59.565Z,64.6
2019-04-06T01:47:01.096Z,63.2
2019-04-06T01:49:02.528Z,71.2
2019-04-06T01:51:03.966Z,62.1
2019-04-06T01:53:05.395Z,62.5
2019-04-06T01:55:06.819Z,69.2
2019-04-06T01:57:08.259Z,54.2
2019-04-06T01:59:09.689Z,46.5
2019-04-06T02:01:11.022Z,50.1
2019-04-06T02:03:12.353Z,47.5
2019-04-06T02:05:13.785Z,55.2
2019-04-06T02:07:15.211Z,51
2019-04-06T02:09:16.647Z,45.8
2019-04-06T02:11:18.071Z,53.2
2019-04-06T02:13:19.398Z,55.5
2019-04-06T02:15:20.826Z,57.1
2019-04-06T02:17:22.199Z,60.5
2019-04-06T02:19:23.544Z,48
2019-04-06T02:21:24.982Z,62.8
2019-04-06T02:23:26.410Z,51
2019-04-06T02:25:27.845Z,79.4
2019-04-06T02:27:29.274Z,59.7
2019-04-06T02:29:30.700Z,61
2019-04-06T02:31:32.126Z,72.2
2019-04-06T02:33:33.537Z,71.8
2019-04-06T02:35:34.966Z,69.5
2019-04-06T02:37:36.398Z,83.5
2019-04-06T02:39:37.827Z,72.3
2019-04-06T02:41:39.260Z,72.9
2019-04-06T02:43:40.679Z,74.8
2019-04-06T02:45:42.129Z,75.6
2019-04-06T02:47:43.537Z,96.3
2019-04-06T02:49:44.975Z,76.2
2019-04-06T02:51:46.423Z,92.7
2019-04-06T02:53:47.840Z,85.4
2019-04-06T02:55:49.345Z,104.1
2019-04-06T02:57:50.762Z,86.5
2019-04-06T02:59:52.302Z,82.8
2019-04-06T03:01:53.675Z,82
2019-04-06T03:03:55.097Z,80.1
2019-04-06T03:05:56.625Z,80.2
2019-04-06T03:07:58.098Z,84.6
2019-04-06T03:09:59.621Z,78.4
2019-04-06T03:12:00.899Z,81.8
2019-04-06T03:14:02.218Z,81.3
2019-04-06T03:16:03.653Z,86.1
2019-04-06T03:18:05.083Z,79
2019-04-06T03:20:06.517Z,84.9
2019-04-06T03:22:08.243Z,115.3
2019-04-06T03:24:09.591Z,105.4
2019-04-06T03:26:11.217Z,91.2
2019-04-06T03:28:12.714Z,103
2019-04-06T03:30:14.284Z,93.9
2019-04-06T03:32:16.024Z,100.9
2019-04-06T03:34:20.818Z,114.2
2019-04-06T03:36:24.029Z,119.7
2019-04-06T03:38:25.531Z,108.1
2019-04-06T03:40:26.969Z,99.6
2019-04-06T03:42:28.389Z,107
2019-04-06T03:44:29.819Z,97.2
2019-04-06T03:46:31.238Z,99.3
2019-04-06T03:48:32.680Z,98.9
2019-04-06T03:50:34.112Z,95.9
2019-04-06T03:52:35.475Z,100.4
2019-04-06T03:54:36.910Z,118.3
2019-04-06T03:56:38.464Z,102.6
2019-04-06T04:00:34.934Z,109
2019-04-06T04:02:36.383Z,101.4
2019-04-06T04:04:37.780Z,101.7
2019-04-06T04:06:39.377Z,96.5
2019-04-06T04:08:40.847Z,112.2
2019-04-06T04:10:42.279Z,96.5
2019-04-06T04:12:43.711Z,121.2
2019-04-06T04:14:45.049Z,121.6
2019-04-06T04:16:46.476Z,114.7
2019-04-06T04:18:47.914Z,112.8
2019-04-06T04:20:49.352Z,104.9
2019-04-06T04:22:51.082Z,124.5
2019-04-06T04:24:52.659Z,105.5
2019-04-06T04:26:54.071Z,114.3
2019-04-06T04:28:55.486Z,102.8
2019-04-06T04:30:56.916Z,100.7
2019-04-06T04:32:58.295Z,108.7
2019-04-06T04:34:59.726Z,104.1
2019-04-06T04:37:01.065Z,119.9
2019-04-06T04:39:02.501Z,104.9
2019-04-06T04:41:04.179Z,119.2
2019-04-06T04:43:05.664Z,109.3
2019-04-06T04:45:07.096Z,133.2
2019-04-06T04:47:08.540Z,123.8
2019-04-06T04:49:09.951Z,120.9
2019-04-06T04:51:11.318Z,125.5
2019-04-06T04:53:12.826Z,129.4
2019-04-06T04:55:14.263Z,141.2
2019-04-06T04:57:15.552Z,142.4
2019-04-06T04:59:16.988Z,129.2
2019-04-06T05:01:18.506Z,127.4
2019-04-06T05:03:20.152Z,130.9
2019-04-06T05:05:21.613Z,119.5
2019-04-06T05:07:23.018Z,131.2
2019-04-06T05:09:24.349Z,128.9
2019-04-06T05:11:25.744Z,121.1
2019-04-06T05:13:27.175Z,126.1
2019-04-06T05:15:28.508Z,121.3
2019-04-06T05:17:29.857Z,119.9
2019-04-06T05:19:31.256Z,126.8
2019-04-06T05:21:32.600Z,127.5
2019-04-06T05:23:34.027Z,121
2019-04-06T05:25:35.458Z,115.8
2019-04-06T05:27:37.033Z,125.6
2019-04-06T05:29:38.416Z,119.7
2019-04-06T05:31:39.751Z,119.1
2019-04-06T05:33:41.322Z,116.5
2019-04-06T05:35:42.623Z,119.1
2019-04-06T05:37:44.030Z,122.1
2019-04-06T05:39:45.606Z,117.5
2019-04-06T05:41:46.977Z,114.9
2019-04-06T05:43:48.598Z,119.9
2019-04-06T05:45:50.061Z,117.1
2019-04-06T05:47:51.498Z,111.6
2019-04-06T05:49:52.923Z,111.8
2019-04-06T05:51:54.361Z,117.1
2019-04-06T05:53:55.759Z,118
2019-04-06T05:55:57.195Z,116.3
2019-04-06T05:58:03.858Z,111.7
2019-04-06T06:00:10.109Z,113
2019-04-06T06:02:12.867Z,114.3
2019-04-06T06:04:14.235Z,109.9
2019-04-06T06:06:15.651Z,114.9
2019-04-06T06:08:16.992Z,111.3
2019-04-06T06:10:18.398Z,116.3
2019-04-06T06:12:19.822Z,109.1
2019-04-06T06:14:21.557Z,108.7
2019-04-06T06:16:22.937Z,111.8
2019-04-06T06:18:26.797Z,109.6
2019-04-06T06:20:29.150Z,107
2019-04-06T06:22:30.533Z,109.7
2019-04-06T06:24:33.566Z,120.4
2019-04-06T06:26:36.502Z,106.6
2019-04-06T06:28:37.858Z,105.3
2019-04-06T06:30:39.449Z,108.8
2019-04-06T06:32:40.795Z,103.9
2019-04-06T06:34:42.194Z,99.9
2019-04-06T06:36:43.603Z,99.1
2019-04-06T06:38:44.972Z,108.2
2019-04-06T06:40:46.341Z,105.1
2019-04-06T06:42:47.703Z,95.7
2019-04-06T06:44:49.144Z,95.1
2019-04-06T06:46:50.576Z,91.7
2019-04-06T06:48:52.003Z,102.5
2019-04-06T06:50:53.435Z,94.7
2019-04-06T06:52:54.864Z,96.4
2019-04-06T06:54:56.325Z,95
2019-04-06T06:56:57.751Z,98.2
2019-04-06T06:58:59.116Z,92.4
2019-04-06T07:01:00.511Z,95.4
2019-04-06T07:03:04.540Z,93.3
2019-04-06T07:05:05.969Z,93
2019-04-06T07:07:07.290Z,93.7
2019-04-06T07:09:08.724Z,92.8
2019-04-06T07:11:10.156Z,102.8
2019-04-06T07:13:11.861Z,101.9
2019-04-06T07:15:13.250Z,104.6
2019-04-06T07:17:14.677Z,99.3
2019-04-06T07:19:16.056Z,96.4
2019-04-06T07:21:17.478Z,105.5
2019-04-06T07:23:18.908Z,91.1
2019-04-06T07:25:20.323Z,93.8
2019-04-06T07:27:21.661Z,110.6
2019-04-06T07:29:23.091Z,101.7
2019-04-06T07:31:24.415Z,98.1
2019-04-06T08:49:54.757Z,91
2019-04-06T08:51:56.194Z,92.9
2019-04-06T08:53:57.661Z,86.4
2019-04-06T08:55:59.069Z,83.6
2019-04-06T08:58:00.410Z,90
2019-04-06T09:00:01.846Z,87.5
2019-04-06T09:02:03.209Z,90.3
2019-04-06T09:04:04.637Z,88.4
2019-04-06T09:06:05.978Z,87.6
2019-04-06T09:08:07.247Z,78.2
2019-04-06T09:10:08.648Z,78.5
2019-04-06T09:12:10.086Z,77.6
2019-04-06T09:14:11.676Z,83.7
2019-04-06T09:16:13.064Z,77.5
2019-04-06T09:18:14.505Z,78.3
2019-04-06T09:20:15.935Z,75.1
2019-04-06T09:22:17.372Z,78.1
2019-04-06T09:24:18.723Z,78.1
2019-04-06T09:26:20.147Z,70.6
2019-04-06T09:28:21.685Z,73.9
2019-04-06T09:30:23.026Z,64.4
2019-04-06T09:32:24.464Z,62.7
2019-04-06T09:34:25.801Z,64.7
2019-04-06T09:36:27.147Z,70.4
2019-04-06T09:38:28.785Z,62
2019-04-06T09:40:30.322Z,60
2019-04-06T09:42:31.738Z,66.3
2019-04-06T09:44:33.106Z,58.9
2019-04-06T09:46:34.522Z,57.9
2019-04-06T09:48:35.897Z,54.2
2019-04-06T09:50:37.329Z,57.5
2019-04-06T09:52:38.632Z,53.2
2019-04-06T09:54:39.957Z,58.5
2019-04-06T09:56:41.579Z,49.3
2019-04-06T09:58:43.173Z,47.3
2019-04-06T10:00:44.564Z,40
2019-04-06T10:02:45.915Z,42.3
2019-04-06T10:04:47.550Z,40
2019-04-06T10:06:48.990Z,38.2
2019-04-06T10:08:50.332Z,42.3
2019-04-06T10:10:51.762Z,40.6
2019-04-06T10:12:53.358Z,40.4
2019-04-06T10:14:54.981Z,40.8
2019-04-06T10:16:56.343Z,38.9
2019-04-06T10:18:57.594Z,35.7
2019-04-06T10:24:45.127Z,37.9
2019-04-06T10:26:46.471Z,38
2019-04-06T10:28:47.909Z,35.3
2019-04-06T10:30:49.350Z,34.3
2019-04-06T10:32:50.880Z,40.8
2019-04-06T10:34:52.331Z,35.9
2019-04-06T10:36:54.200Z,34.1
2019-04-06T10:38:55.608Z,32.9
2019-04-06T10:40:56.950Z,30.1
2019-04-06T10:42:58.400Z,28.9
2019-04-06T10:44:59.812Z,26.5
2019-04-06T10:47:01.246Z,27.7
2019-04-06T10:49:02.695Z,26.6
2019-04-06T10:51:04.134Z,26.5
2019-04-06T10:53:05.519Z,26.6
2019-04-06T10:55:07.026Z,26.3
2019-04-06T10:57:08.443Z,25.8
2019-04-06T10:59:09.876Z,24.2
2019-04-06T11:01:11.228Z,26.1
2019-04-06T11:03:12.737Z,25.8
2019-04-06T11:05:14.209Z,27.1
2019-04-06T11:07:15.647Z,21.6
2019-04-06T11:09:17.092Z,20.6
2019-04-06T11:11:20.449Z,21.3
2019-04-06T11:13:22.186Z,19.8
2019-04-06T11:15:23.796Z,16.1
2019-04-06T11:17:25.181Z,16.5
2019-04-06T11:19:26.919Z,16.4
2019-04-06T11:21:28.585Z,15.3
2019-04-06T11:23:30.010Z,16
2019-04-06T11:25:31.454Z,16.6
2019-04-06T11:27:32.838Z,14.4
2019-04-06T11:29:34.283Z,14.4
2019-04-06T11:31:35.724Z,12.3
2019-04-06T11:33:37.565Z,14.8
2019-04-06T11:35:38.918Z,14.2
2019-04-06T11:37:40.363Z,12.7
2019-04-06T11:39:41.710Z,12.8
2019-04-06T11:41:43.299Z,14.9
2019-04-06T11:43:44.727Z,15.8
2019-04-06T11:45:46.171Z,13.8
2019-04-06T11:47:48.199Z,12.6
2019-04-06T11:49:49.900Z,13.5
2019-04-06T11:51:51.363Z,12.4
2019-04-06T11:53:53.358Z,13.6
2019-04-06T11:55:54.807Z,13.7
2019-04-06T11:57:56.319Z,12.9
2019-04-06T11:59:57.698Z,14
2019-04-06T12:01:59.094Z,13.2
2019-04-06T12:04:00.347Z,12.4
2019-04-06T12:06:01.711Z,14.3
2019-04-06T12:08:03.155Z,13.2
2019-04-06T12:10:04.952Z,13.3
2019-04-06T12:12:06.347Z,13
2019-04-06T12:14:07.704Z,12.5
2019-04-06T12:16:09.317Z,15.8
2019-04-06T12:18:10.871Z,15.8
2019-04-06T12:20:12.389Z,14.9
2019-04-06T12:22:14.136Z,15.1
2019-04-06T12:24:15.710Z,14.9
2019-04-06T12:26:17.349Z,20.3
2019-04-06T12:28:21.195Z,16.7
2019-04-06T12:30:23.444Z,15.1
2019-04-06T12:32:39.091Z,16
2019-04-06T12:34:40.508Z,15.2
2019-04-06T12:36:41.862Z,16.1
2019-04-06T12:38:43.177Z,15.9
2019-04-06T12:40:44.525Z,15.8
2019-04-06T12:42:45.870Z,15.6
2019-04-06T12:44:47.495Z,14.1
2019-04-06T12:46:48.906Z,15.4
2019-04-06T12:48:52.493Z,16.7
2019-04-06T12:50:55.084Z,14.9
2019-04-06T12:52:56.486Z,15.1
2019-04-06T12:54:58.289Z,16.9
2019-04-06T12:56:59.689Z,14.4
2019-04-06T12:59:01.122Z,14.2
2019-04-06T13:01:02.655Z,17.1
2019-04-06T13:03:04.414Z,15
2019-04-06T13:05:06.335Z,15.5
2019-04-06T13:07:07.710Z,14.7
2019-04-06T13:09:09.165Z,15.8
2019-04-06T13:11:10.617Z,16.5
2019-04-06T13:13:12.176Z,16.7
2019-04-06T13:15:14.130Z,16.3
2019-04-06T13:17:15.786Z,16.6
2019-04-06T13:19:17.187Z,15.4
2019-04-06T13:21:18.633Z,14.8
2019-04-06T13:23:20.397Z,14.6
2019-04-06T13:25:22.072Z,15.6
2019-04-06T13:27:23.482Z,14.7
2019-04-06T13:29:24.926Z,15.3
2019-04-06T13:31:26.250Z,14.6
2019-04-06T13:33:27.839Z,16
2019-04-06T13:35:29.193Z,15.1
2019-04-06T13:37:30.541Z,14.5
2019-04-06T13:39:31.891Z,17.3
2019-04-06T13:41:33.583Z,15.3
2019-04-06T13:43:34.984Z,14.9
2019-04-06T13:45:36.337Z,15.8
2019-04-06T13:47:37.911Z,15.9
2019-04-06T13:49:39.604Z,13.7
2019-04-06T13:51:41.079Z,15.2
2019-04-06T13:53:42.830Z,14.7
2019-04-06T13:55:44.179Z,19
2019-04-06T13:57:45.531Z,14
2019-04-06T13:59:46.938Z,19.1
2019-04-06T14:01:48.385Z,17.2
2019-04-06T14:03:49.813Z,18.7
2019-04-06T14:05:51.131Z,16.7
2019-04-06T14:07:52.481Z,15.4
2019-04-06T14:09:53.912Z,14.5
2019-04-06T14:11:55.380Z,15.5
2019-04-06T14:13:56.726Z,14.3
2019-04-06T14:15:58.072Z,18.7
2019-04-06T14:17:59.427Z,27.2
2019-04-06T14:20:00.847Z,23.6
2019-04-06T14:22:02.299Z,27.4
2019-04-06T14:24:03.823Z,26.2
2019-04-06T14:26:05.527Z,26.8
2019-04-06T14:28:08.839Z,29.6
2019-04-06T14:30:11.266Z,30.1
2019-04-06T14:32:12.653Z,28.3
2019-04-06T14:34:14.104Z,30.8
2019-04-06T14:36:15.512Z,28
2019-04-06T14:38:17.012Z,28.2
2019-04-06T14:40:18.409Z,28.6
2019-04-06T14:42:19.858Z,29.3
2019-04-06T14:44:21.749Z,28.7
2019-04-06T14:46:23.307Z,25.7
2019-04-06T14:48:24.802Z,25.1
2019-04-06T14:50:26.304Z,29.7
2019-04-06T14:52:27.778Z,27.4
2019-04-06T14:54:29.224Z,28.8
2019-04-06T14:56:30.674Z,31.5
2019-04-06T14:58:32.162Z,29.2
2019-04-06T15:00:34.161Z,27.9
2019-04-06T15:02:35.842Z,30.5
2019-04-06T15:04:37.332Z,36
2019-04-06T15:06:39.485Z,33.1
2019-04-06T15:08:41.264Z,28
2019-04-06T15:10:42.861Z,36.3
2019-04-06T15:12:44.668Z,35.2
2019-04-06T15:14:46.121Z,33.2
2019-04-06T15:16:47.565Z,30.4
2019-04-06T15:18:49.025Z,31.4
2019-04-06T15:20:50.734Z,37.9
2019-04-06T15:22:52.145Z,32.6
2019-04-06T15:24:53.592Z,32.3
2019-04-06T15:26:54.995Z,32.6
2019-04-06T15:28:56.445Z,37.9
2019-04-06T15:30:57.894Z,38.2
2019-04-06T15:32:59.344Z,32
2019-04-06T15:35:00.735Z,29.4
2019-04-06T15:37:02.215Z,29.4
2019-04-06T15:39:03.694Z,34.6
2019-04-06T15:41:05.104Z,31
2019-04-06T15:43:06.449Z,31.9
2019-04-06T15:45:07.821Z,30
2019-04-06T15:47:09.273Z,31.2
2019-04-06T15:49:10.615Z,32.1
2019-04-06T15:51:12.118Z,30.4
2019-04-06T15:53:13.515Z,28.1
2019-04-06T15:55:14.966Z,27.6
2019-04-06T15:57:16.647Z,28.3
2019-04-06T15:59:20.112Z,29.6
2019-04-06T16:01:22.218Z,28.4
2019-04-06T16:03:23.666Z,35.2
2019-04-06T16:05:25.604Z,33.5
2019-04-06T16:07:31.651Z,29.1
2019-04-06T16:09:37.259Z,31.8
2019-04-06T16:11:39.407Z,29.7
2019-04-06T16:13:40.862Z,32
2019-04-06T16:15:42.490Z,36.5
2019-04-06T16:17:43.839Z,28.6
2019-04-06T16:19:45.198Z,30.9
2019-04-06T16:21:46.648Z,32.9
2019-04-06T16:23:48.496Z,30.6
2019-04-06T16:25:49.906Z,34.4
2019-04-06T16:27:51.564Z,31.3
2019-04-06T16:29:53.004Z,30.7
2019-04-06T16:31:54.360Z,39.7
2019-04-06T16:33:55.791Z,32
2019-04-06T16:35:57.197Z,31.6
2019-04-06T16:37:59.047Z,30.2
2019-04-06T16:40:00.587Z,27
2019-04-06T16:42:02.271Z,27
2019-04-06T16:44:03.605Z,30.8
2019-04-06T16:46:05.056Z,28.3
2019-04-06T16:48:06.494Z,42.4
2019-04-06T16:50:08.216Z,24.5
2019-04-06T16:52:10.057Z,26.9
2019-04-06T16:54:11.501Z,24.7
2019-04-06T16:56:12.891Z,25.3
2019-04-06T16:58:14.617Z,28.9
2019-04-06T17:00:19.120Z,22.1
2019-04-06T17:02:24.572Z,27.2
2019-04-06T17:04:26.864Z,24.1
2019-04-06T17:06:28.244Z,23.9
2019-04-06T17:08:29.779Z,25.8
2019-04-06T17:10:31.150Z,23.7
2019-04-06T17:12:32.596Z,24.8
2019-04-06T17:14:33.874Z,22.1
2019-04-06T17:16:35.418Z,25.1
2019-04-06T17:18:36.767Z,21.8
2019-04-06T17:20:38.118Z,24.2
2019-04-06T17:22:39.469Z,26.4
2019-04-06T17:24:41.003Z,24.3
2019-04-06T17:26:42.370Z,23.7
2019-04-06T17:28:43.637Z,22.8
2019-04-06T17:30:45.147Z,21.5
2019-04-06T17:32:46.527Z,23.7
2019-04-06T17:34:53.380Z,22.5
2019-04-06T17:36:58.038Z,20.4
2019-04-06T17:38:59.488Z,29.3
2019-04-06T17:41:00.935Z,28.6
2019-04-06T17:43:02.284Z,21.5
2019-04-06T17:45:03.639Z,23.3
2019-04-06T17:47:05.050Z,23.8
2019-04-06T17:49:06.635Z,24.3
2019-04-06T17:51:08.069Z,24.9
2019-04-06T17:53:09.415Z,23
2019-04-06T17:55:11.228Z,21.7
2019-04-06T17:57:12.917Z,26.5
2019-04-06T17:59:14.270Z,26.7
2019-04-06T18:01:16.131Z,26.1
2019-04-06T18:03:18.219Z,23.4
2019-04-06T18:07:37.674Z,21.2
2019-04-06T18:09:43.070Z,23
2019-04-06T18:11:44.597Z,22.6
2019-04-06T18:13:46.183Z,22.5
2019-04-06T18:15:47.613Z,21.6
2019-04-06T18:17:49.383Z,27.1
2019-04-06T18:19:50.776Z,26.1
2019-04-06T18:21:52.139Z,26
2019-04-06T18:23:53.482Z,24.1
2019-04-06T18:25:54.922Z,27.9
2019-04-06T18:27:56.283Z,27
2019-04-06T18:29:57.724Z,27.3
2019-04-06T18:31:59.207Z,30.8
2019-04-06T18:34:00.568Z,24.6
2019-04-06T18:36:02.134Z,22.5
2019-04-06T18:38:03.565Z,23.2
2019-04-06T18:40:04.903Z,23.1
2019-04-06T18:42:06.292Z,24.9
2019-04-06T18:44:07.918Z,22.5
2019-04-06T18:46:09.250Z,22.9
2019-04-06T18:48:10.553Z,24.9
2019-04-06T18:50:11.827Z,23.3
2019-04-06T18:52:13.330Z,29.2
2019-04-06T18:54:14.820Z,26.8
2019-04-06T18:56:16.315Z,25.5
2019-04-06T18:58:17.708Z,25.5
2019-04-06T19:00:19.508Z,23.6
2019-04-06T19:02:21.321Z,24.1
2019-04-06T19:04:22.705Z,22.6
2019-04-06T19:06:24.130Z,26.1
2019-04-06T19:08:25.469Z,24.1
2019-04-06T19:10:27.019Z,26
2019-04-06T19:12:28.460Z,26.8
2019-04-06T19:14:29.904Z,25.5
2019-04-06T19:16:31.872Z,24.2
2019-04-06T19:18:33.437Z,22.7
2019-04-06T19:20:34.960Z,25.4
2019-04-06T19:22:36.324Z,24.3
2019-04-06T19:24:37.773Z,24.4
2019-04-06T19:26:39.214Z,26.9
2019-04-06T19:28:41.049Z,25.8
2019-04-06T19:30:42.844Z,27.4
2019-04-06T19:32:44.471Z,24.8
2019-04-06T19:34:45.862Z,28.4
2019-04-06T19:36:47.226Z,26.9
2019-04-06T19:38:48.639Z,24.9
2019-04-06T19:40:50.376Z,28.3
2019-04-06T19:42:52.100Z,28.6
2019-04-06T19:44:53.655Z,31
2019-04-06T19:46:55.103Z,29.2
2019-04-06T19:48:56.534Z,26.4
2019-04-06T19:50:57.975Z,30.7
2019-04-06T19:53:00.063Z,28.9
2019-04-06T19:55:01.567Z,30.6
2019-04-06T19:57:03.196Z,26.5
2019-04-06T19:59:05.022Z,31.8
2019-04-06T20:01:06.847Z,27.8
2019-04-06T20:03:08.270Z,29.3
2019-04-06T20:05:10.594Z,32.6
2019-04-06T20:07:11.964Z,26.5
2019-04-06T20:09:13.509Z,31.2
2019-04-06T20:11:15.363Z,30.2
2019-04-06T20:13:16.808Z,28.8
2019-04-06T20:15:18.559Z,28.4
2019-04-06T20:17:19.972Z,27.8
2019-04-06T20:19:22.526Z,30.5
2019-04-06T20:21:24.217Z,32.8
2019-04-06T20:23:25.685Z,30.9
2019-04-06T20:25:27.028Z,30.3
2019-04-06T20:27:28.997Z,29.5
2019-04-06T20:29:30.464Z,32.1
2019-04-06T20:31:31.896Z,30.1
2019-04-06T20:33:33.827Z,31
2019-04-06T20:35:47.779Z,31.8
2019-04-06T20:37:49.109Z,33.8
2019-04-06T20:39:50.541Z,33.4
2019-04-06T20:41:51.911Z,32.6
2019-04-06T20:43:53.407Z,33.6
2019-04-06T20:45:54.751Z,33.1
2019-04-06T20:47:56.083Z,32.5
2019-04-06T20:49:57.338Z,32.5
2019-04-06T20:51:59.475Z,33.9
2019-04-06T20:54:00.983Z,34.4
2019-04-06T20:56:02.348Z,34.3
2019-04-06T20:58:03.992Z,33.3
2019-04-06T21:00:05.934Z,34.3
2019-04-06T21:02:07.357Z,31.8
2019-04-06T21:04:09.208Z,33.9
2019-04-06T21:06:11.170Z,31.6
2019-04-06T21:08:12.650Z,35.9
2019-04-06T21:10:14.083Z,34.4
2019-04-06T21:12:15.977Z,32
2019-04-06T21:14:17.343Z,33.4
2019-04-06T21:16:18.776Z,32.5
2019-04-06T21:18:20.209Z,38.9
2019-04-06T21:20:21.890Z,37.7
2019-04-06T21:22:23.761Z,35.9
2019-04-06T21:24:25.307Z,33.7
2019-04-06T21:26:26.739Z,37.1
2019-04-06T21:28:27.990Z,36.9
2019-04-06T21:30:29.432Z,32.2
2019-04-06T21:32:31.052Z,37.9
2019-04-06T21:34:32.747Z,36.3
2019-04-06T21:36:34.414Z,34.5
2019-04-06T21:38:36.451Z,34.4
2019-04-06T21:40:38.430Z,32.6
2019-04-06T21:42:40.005Z,37.1
2019-04-06T21:44:41.451Z,36.9
2019-04-06T21:46:43.341Z,38.1
2019-04-06T21:48:44.906Z,37.5
2019-04-06T21:50:46.459Z,39
2019-04-06T21:52:49.361Z,37.1
2019-04-06T21:54:51.101Z,38
2019-04-06T21:56:52.471Z,37.5
2019-04-06T21:58:53.802Z,39.3
2019-04-06T22:00:55.298Z,35.4
2019-04-06T22:02:56.751Z,38.6
2019-04-06T22:04:58.182Z,36.6
2019-04-06T22:06:59.435Z,35.7
2019-04-06T22:09:01.456Z,37
2019-04-06T22:11:03.008Z,37.9
2019-04-06T22:13:04.876Z,38.2
2019-04-06T22:15:06.375Z,34.8
2019-04-06T22:17:07.707Z,39.1
2019-04-06T22:19:09.540Z,38.2
2019-04-06T22:21:11.349Z,40.6
2019-04-06T22:23:13.095Z,38
2019-04-06T22:25:14.537Z,40.9
2019-04-06T22:27:16.039Z,41
2019-04-06T22:29:17.405Z,41.3
2019-04-06T22:31:18.757Z,38.5
2019-04-06T22:33:20.709Z,41.7
2019-04-06T22:35:23.006Z,42.1
2019-04-06T22:37:24.586Z,38.7
2019-04-06T22:39:26.068Z,42.7
2019-04-06T22:41:27.446Z,39.9
2019-04-06T22:43:29.335Z,42.5
2019-04-06T22:45:31.041Z,44.3
2019-04-06T22:47:32.425Z,43.3
2019-04-06T22:49:33.901Z,44
2019-04-06T22:51:35.620Z,42
2019-04-06T22:53:37.021Z,43.5
2019-04-06T22:55:38.354Z,41.6
2019-04-06T22:57:39.924Z,47.1
2019-04-06T22:59:41.537Z,42.4
2019-04-06T23:01:42.950Z,41.9
2019-04-06T23:03:44.975Z,40.1
2019-04-06T23:05:46.982Z,40.8
2019-04-06T23:07:48.439Z,44.8
2019-04-06T23:09:49.870Z,39.7
2019-04-06T23:11:51.391Z,43.6
2019-04-06T23:13:52.756Z,46.2
2019-04-06T23:15:54.303Z,45
2019-04-06T23:17:55.805Z,46.5
2019-04-06T23:19:57.135Z,46
2019-04-06T23:21:58.468Z,44.3
2019-04-06T23:23:59.823Z,48
2019-04-06T23:26:01.155Z,41.7
2019-04-06T23:28:02.590Z,46.9
2019-04-06T23:32:05.435Z,42.5
2019-04-06T23:34:06.795Z,43.1
2019-04-06T23:36:08.165Z,39.5
2019-04-06T23:38:09.589Z,45.2
2019-04-06T23:40:11.221Z,43.8
2019-04-06T23:42:12.633Z,41.4
2019-04-06T23:44:14.589Z,46.2
2019-04-06T23:46:16.674Z,45.2
2019-04-06T23:48:18.823Z,41
2019-04-06T23:50:20.178Z,42
2019-04-06T23:52:21.614Z,43
2019-04-06T23:54:23.039Z,44.5
2019-04-06T23:56:24.393Z,41.4
2019-04-06T23:58:25.817Z,45.2
